sensor_id;sensor_type;location;lat;lon;timestamp;temperature;humidity
15991;DHT22;8100;50.994;4.538;2023-02-21T00:02:52;7.50;99.90
15991;DHT22;8100;50.994;4.538;2023-02-21T00:05:57;7.40;99.90
15991;DHT22;8100;50.994;4.538;2023-02-21T00:09:01;7.50;99.90
15991;DHT22;8100;50.994;4.538;2023-02-21T00:12:06;7.60;99.90
15991;DHT22;8100;50.994;4.538;2023-02-21T00:15:12;7.40;99.90
15991;DHT22;8100;50.994;4.538;2023-02-21T00:18:17;7.30;99.90
15991;DHT22;8100;50.994;4.538;2023-02-21T00:21:23;7.30;99.90
15991;DHT22;8100;50.994;4.538;2023-02-21T00:24:27;7.50;99.90
15991;DHT22;8100;50.994;4.538;2023-02-21T00:27:32;7.40;99.90
15991;DHT22;8100;50.994;4.538;2023-02-21T00:30:38;7.30;99.90
15991;DHT22;8100;50.994;4.538;2023-02-21T00:33:43;7.50;99.90
15991;DHT22;8100;50.994;4.538;2023-02-21T00:36:48;7.50;99.90
15991;DHT22;8100;50.994;4.538;2023-02-21T00:39:53;7.30;99.90
15991;DHT22;8100;50.994;4.538;2023-02-21T00:42:58;7.40;99.90
15991;DHT22;8100;50.994;4.538;2023-02-21T00:46:04;7.20;99.90
15991;DHT22;8100;50.994;4.538;2023-02-21T00:49:09;7.30;99.90
15991;DHT22;8100;50.994;4.538;2023-02-21T00:52:13;7.50;99.90
15991;DHT22;8100;50.994;4.538;2023-02-21T00:55:19;7.40;99.90
15991;DHT22;8100;50.994;4.538;2023-02-21T00:58:23;7.40;99.90
15991;DHT22;8100;50.994;4.538;2023-02-21T01:01:29;7.40;99.90
15991;DHT22;8100;50.994;4.538;2023-02-21T01:04:34;7.20;99.90
15991;DHT22;8100;50.994;4.538;2023-02-21T01:07:38;7.20;99.90
15991;DHT22;8100;50.994;4.538;2023-02-21T01:10:43;7.30;99.90
15991;DHT22;8100;50.994;4.538;2023-02-21T01:13:48;7.40;99.90
15991;DHT22;8100;50.994;4.538;2023-02-21T01:16:54;7.40;99.90
15991;DHT22;8100;50.994;4.538;2023-02-21T01:19:59;7.30;99.90
15991;DHT22;8100;50.994;4.538;2023-02-21T01:23:04;7.40;99.90
15991;DHT22;8100;50.994;4.538;2023-02-21T01:26:09;7.10;99.90
15991;DHT22;8100;50.994;4.538;2023-02-21T01:29:14;7.30;99.90
15991;DHT22;8100;50.994;4.538;2023-02-21T01:32:20;7.10;99.90
15991;DHT22;8100;50.994;4.538;2023-02-21T01:35:25;7.50;99.90
15991;DHT22;8100;50.994;4.538;2023-02-21T01:38:32;7.50;99.90
15991;DHT22;8100;50.994;4.538;2023-02-21T01:41:37;7.20;99.90
15991;DHT22;8100;50.994;4.538;2023-02-21T01:44:42;7.10;99.90
15991;DHT22;8100;50.994;4.538;2023-02-21T01:47:49;7.30;99.90
15991;DHT22;8100;50.994;4.538;2023-02-21T01:50:55;7.50;99.90
15991;DHT22;8100;50.994;4.538;2023-02-21T01:54:02;7.10;99.90
15991;DHT22;8100;50.994;4.538;2023-02-21T01:57:07;7.10;99.90
15991;DHT22;8100;50.994;4.538;2023-02-21T02:00:13;7.30;99.90
15991;DHT22;8100;50.994;4.538;2023-02-21T02:03:19;7.50;99.90
15991;DHT22;8100;50.994;4.538;2023-02-21T02:06:24;7.50;99.90
15991;DHT22;8100;50.994;4.538;2023-02-21T02:09:29;7.20;99.90
15991;DHT22;8100;50.994;4.538;2023-02-21T02:12:52;7.00;99.90
15991;DHT22;8100;50.994;4.538;2023-02-21T02:15:51;7.40;99.90
15991;DHT22;8100;50.994;4.538;2023-02-21T02:18:56;7.30;99.90
15991;DHT22;8100;50.994;4.538;2023-02-21T02:25:25;7.00;99.90
15991;DHT22;8100;50.994;4.538;2023-02-21T02:28:31;6.90;99.90
15991;DHT22;8100;50.994;4.538;2023-02-21T02:31:41;7.10;99.90
15991;DHT22;8100;50.994;4.538;2023-02-21T02:34:47;7.00;99.90
15991;DHT22;8100;50.994;4.538;2023-02-21T02:37:40;6.80;99.90
15991;DHT22;8100;50.994;4.538;2023-02-21T02:40:34;7.00;99.90
15991;DHT22;8100;50.994;4.538;2023-02-21T02:43:27;7.10;99.90
15991;DHT22;8100;50.994;4.538;2023-02-21T02:46:19;7.00;99.90
15991;DHT22;8100;50.994;4.538;2023-02-21T02:49:11;6.90;99.90
15991;DHT22;8100;50.994;4.538;2023-02-21T02:52:04;7.30;99.90
15991;DHT22;8100;50.994;4.538;2023-02-21T02:54:59;6.80;99.90
15991;DHT22;8100;50.994;4.538;2023-02-21T02:57:47;7.40;99.90
15991;DHT22;8100;50.994;4.538;2023-02-21T03:00:38;6.90;99.90
15991;DHT22;8100;50.994;4.538;2023-02-21T03:03:41;7.00;99.90
15991;DHT22;8100;50.994;4.538;2023-02-21T03:06:37;7.00;99.90
15991;DHT22;8100;50.994;4.538;2023-02-21T03:09:31;7.30;99.90
15991;DHT22;8100;50.994;4.538;2023-02-21T03:12:24;7.20;99.90
15991;DHT22;8100;50.994;4.538;2023-02-21T03:15:17;6.70;99.90
15991;DHT22;8100;50.994;4.538;2023-02-21T03:18:08;6.80;99.90
15991;DHT22;8100;50.994;4.538;2023-02-21T03:21:02;6.80;99.90
15991;DHT22;8100;50.994;4.538;2023-02-21T03:23:52;7.30;99.90
15991;DHT22;8100;50.994;4.538;2023-02-21T03:26:44;7.30;99.90
15991;DHT22;8100;50.994;4.538;2023-02-21T03:29:33;6.70;99.90
15991;DHT22;8100;50.994;4.538;2023-02-21T03:32:25;7.20;99.90
15991;DHT22;8100;50.994;4.538;2023-02-21T03:35:12;7.20;99.90
15991;DHT22;8100;50.994;4.538;2023-02-21T03:38:00;6.90;99.90
15991;DHT22;8100;50.994;4.538;2023-02-21T03:40:47;7.30;99.90
15991;DHT22;8100;50.994;4.538;2023-02-21T03:43:36;6.90;99.90
15991;DHT22;8100;50.994;4.538;2023-02-21T03:46:23;6.70;99.90
15991;DHT22;8100;50.994;4.538;2023-02-21T03:49:10;6.70;99.90
15991;DHT22;8100;50.994;4.538;2023-02-21T03:51:57;6.70;99.90
15991;DHT22;8100;50.994;4.538;2023-02-21T03:54:44;6.70;99.90
15991;DHT22;8100;50.994;4.538;2023-02-21T03:57:32;7.20;99.90
15991;DHT22;8100;50.994;4.538;2023-02-21T04:00:21;7.30;99.90
15991;DHT22;8100;50.994;4.538;2023-02-21T04:03:08;7.30;99.90
15991;DHT22;8100;50.994;4.538;2023-02-21T04:05:55;6.70;99.90
15991;DHT22;8100;50.994;4.538;2023-02-21T04:08:43;7.30;99.90
15991;DHT22;8100;50.994;4.538;2023-02-21T04:11:30;6.60;99.90
15991;DHT22;8100;50.994;4.538;2023-02-21T04:14:18;6.60;99.90
15991;DHT22;8100;50.994;4.538;2023-02-21T04:17:06;7.40;99.90
15991;DHT22;8100;50.994;4.538;2023-02-21T04:19:55;6.90;99.90
15991;DHT22;8100;50.994;4.538;2023-02-21T04:22:42;6.70;99.90
15991;DHT22;8100;50.994;4.538;2023-02-21T04:25:29;6.90;99.90
15991;DHT22;8100;50.994;4.538;2023-02-21T04:28:16;7.10;99.90
15991;DHT22;8100;50.994;4.538;2023-02-21T04:31:04;7.40;99.90
15991;DHT22;8100;50.994;4.538;2023-02-21T04:33:52;6.70;99.90
15991;DHT22;8100;50.994;4.538;2023-02-21T04:36:40;6.70;99.90
15991;DHT22;8100;50.994;4.538;2023-02-21T04:39:27;7.30;99.90
15991;DHT22;8100;50.994;4.538;2023-02-21T04:42:14;6.60;99.90
15991;DHT22;8100;50.994;4.538;2023-02-21T04:45:01;6.90;99.90
15991;DHT22;8100;50.994;4.538;2023-02-21T04:47:49;6.60;99.90
15991;DHT22;8100;50.994;4.538;2023-02-21T04:50:37;7.40;99.90
15991;DHT22;8100;50.994;4.538;2023-02-21T04:53:24;6.60;99.90
15991;DHT22;8100;50.994;4.538;2023-02-21T04:56:11;6.60;99.90
15991;DHT22;8100;50.994;4.538;2023-02-21T04:58:59;6.80;99.90
15991;DHT22;8100;50.994;4.538;2023-02-21T05:01:46;7.30;99.90
15991;DHT22;8100;50.994;4.538;2023-02-21T05:04:33;7.30;99.90
15991;DHT22;8100;50.994;4.538;2023-02-21T05:07:22;7.20;99.90
15991;DHT22;8100;50.994;4.538;2023-02-21T05:10:09;6.60;99.90
15991;DHT22;8100;50.994;4.538;2023-02-21T05:12:57;7.30;99.90
15991;DHT22;8100;50.994;4.538;2023-02-21T05:15:44;7.40;99.90
15991;DHT22;8100;50.994;4.538;2023-02-21T05:18:31;6.70;99.90
15991;DHT22;8100;50.994;4.538;2023-02-21T05:21:19;7.20;99.90
15991;DHT22;8100;50.994;4.538;2023-02-21T05:24:08;7.30;99.90
15991;DHT22;8100;50.994;4.538;2023-02-21T05:26:55;7.30;99.90
15991;DHT22;8100;50.994;4.538;2023-02-21T05:29:45;7.40;99.90
15991;DHT22;8100;50.994;4.538;2023-02-21T05:32:33;7.30;99.90
15991;DHT22;8100;50.994;4.538;2023-02-21T05:35:20;7.20;99.90
15991;DHT22;8100;50.994;4.538;2023-02-21T05:38:07;6.90;99.90
15991;DHT22;8100;50.994;4.538;2023-02-21T05:40:56;6.60;99.90
15991;DHT22;8100;50.994;4.538;2023-02-21T05:43:44;6.80;99.90
15991;DHT22;8100;50.994;4.538;2023-02-21T05:46:33;7.30;99.90
15991;DHT22;8100;50.994;4.538;2023-02-21T05:49:20;6.70;99.90
15991;DHT22;8100;50.994;4.538;2023-02-21T05:52:09;7.30;99.90
15991;DHT22;8100;50.994;4.538;2023-02-21T05:54:57;7.40;99.90
15991;DHT22;8100;50.994;4.538;2023-02-21T05:57:45;7.40;99.90
15991;DHT22;8100;50.994;4.538;2023-02-21T06:00:32;6.50;99.90
15991;DHT22;8100;50.994;4.538;2023-02-21T06:03:20;7.20;99.90
15991;DHT22;8100;50.994;4.538;2023-02-21T06:06:07;7.20;99.90
15991;DHT22;8100;50.994;4.538;2023-02-21T06:08:54;6.80;99.90
15991;DHT22;8100;50.994;4.538;2023-02-21T06:11:41;7.40;99.90
15991;DHT22;8100;50.994;4.538;2023-02-21T06:14:30;6.90;99.90
15991;DHT22;8100;50.994;4.538;2023-02-21T06:17:17;7.00;99.90
15991;DHT22;8100;50.994;4.538;2023-02-21T06:20:06;6.50;99.90
15991;DHT22;8100;50.994;4.538;2023-02-21T06:22:53;6.50;99.90
15991;DHT22;8100;50.994;4.538;2023-02-21T06:25:40;6.50;99.90
15991;DHT22;8100;50.994;4.538;2023-02-21T06:28:28;6.50;99.90
15991;DHT22;8100;50.994;4.538;2023-02-21T06:31:17;7.30;99.90
15991;DHT22;8100;50.994;4.538;2023-02-21T06:34:06;7.40;99.90
15991;DHT22;8100;50.994;4.538;2023-02-21T06:36:53;7.50;99.90
15991;DHT22;8100;50.994;4.538;2023-02-21T06:39:41;7.40;99.90
15991;DHT22;8100;50.994;4.538;2023-02-21T06:42:28;7.20;99.90
15991;DHT22;8100;50.994;4.538;2023-02-21T06:45:16;7.30;99.90
15991;DHT22;8100;50.994;4.538;2023-02-21T06:48:04;6.90;99.90
15991;DHT22;8100;50.994;4.538;2023-02-21T06:50:52;6.30;99.90
15991;DHT22;8100;50.994;4.538;2023-02-21T06:53:39;7.30;99.90
15991;DHT22;8100;50.994;4.538;2023-02-21T06:56:27;7.00;99.90
15991;DHT22;8100;50.994;4.538;2023-02-21T06:59:14;6.70;99.90
15991;DHT22;8100;50.994;4.538;2023-02-21T07:02:01;7.40;99.90
15991;DHT22;8100;50.994;4.538;2023-02-21T07:04:50;7.30;99.90
15991;DHT22;8100;50.994;4.538;2023-02-21T07:07:38;7.40;99.90
15991;DHT22;8100;50.994;4.538;2023-02-21T07:10:25;6.90;99.90
15991;DHT22;8100;50.994;4.538;2023-02-21T07:13:12;7.20;99.90
15991;DHT22;8100;50.994;4.538;2023-02-21T07:16:00;7.00;99.90
15991;DHT22;8100;50.994;4.538;2023-02-21T07:18:47;7.30;99.90
15991;DHT22;8100;50.994;4.538;2023-02-21T07:21:36;6.30;99.90
15991;DHT22;8100;50.994;4.538;2023-02-21T07:24:23;6.90;99.90
15991;DHT22;8100;50.994;4.538;2023-02-21T07:27:11;6.40;99.90
15991;DHT22;8100;50.994;4.538;2023-02-21T07:29:58;7.00;99.90
15991;DHT22;8100;50.994;4.538;2023-02-21T07:32:45;6.30;99.90
15991;DHT22;8100;50.994;4.538;2023-02-21T07:35:32;7.20;99.90
15991;DHT22;8100;50.994;4.538;2023-02-21T07:38:22;6.90;99.90
15991;DHT22;8100;50.994;4.538;2023-02-21T07:41:10;7.30;99.90
15991;DHT22;8100;50.994;4.538;2023-02-21T07:43:57;7.30;99.90
15991;DHT22;8100;50.994;4.538;2023-02-21T07:46:44;7.30;99.90
15991;DHT22;8100;50.994;4.538;2023-02-21T07:49:37;6.80;99.90
15991;DHT22;8100;50.994;4.538;2023-02-21T07:52:24;6.50;99.90
15991;DHT22;8100;50.994;4.538;2023-02-21T07:55:13;6.60;99.90
15991;DHT22;8100;50.994;4.538;2023-02-21T07:58:01;7.10;99.90
15991;DHT22;8100;50.994;4.538;2023-02-21T08:00:48;6.60;99.90
15991;DHT22;8100;50.994;4.538;2023-02-21T08:03:36;6.60;99.90
15991;DHT22;8100;50.994;4.538;2023-02-21T08:06:23;7.30;99.90
15991;DHT22;8100;50.994;4.538;2023-02-21T08:09:10;6.50;99.90
15991;DHT22;8100;50.994;4.538;2023-02-21T08:11:59;7.30;99.90
15991;DHT22;8100;50.994;4.538;2023-02-21T08:14:46;7.30;99.90
15991;DHT22;8100;50.994;4.538;2023-02-21T08:17:33;7.30;99.90
15991;DHT22;8100;50.994;4.538;2023-02-21T08:20:20;6.60;99.90
15991;DHT22;8100;50.994;4.538;2023-02-21T08:23:08;7.30;99.90
15991;DHT22;8100;50.994;4.538;2023-02-21T08:25:55;6.50;99.90
15991;DHT22;8100;50.994;4.538;2023-02-21T08:28:44;6.90;99.90
15991;DHT22;8100;50.994;4.538;2023-02-21T08:31:33;6.90;99.90
15991;DHT22;8100;50.994;4.538;2023-02-21T08:34:20;7.10;99.90
15991;DHT22;8100;50.994;4.538;2023-02-21T08:37:09;6.50;99.90
15991;DHT22;8100;50.994;4.538;2023-02-21T08:40:03;6.50;99.90
15991;DHT22;8100;50.994;4.538;2023-02-21T08:42:51;7.00;99.90
15991;DHT22;8100;50.994;4.538;2023-02-21T08:45:40;7.40;99.90
15991;DHT22;8100;50.994;4.538;2023-02-21T08:48:27;7.00;99.90
15991;DHT22;8100;50.994;4.538;2023-02-21T08:51:14;7.10;99.90
15991;DHT22;8100;50.994;4.538;2023-02-21T08:54:02;6.60;99.90
15991;DHT22;8100;50.994;4.538;2023-02-21T08:56:49;6.70;99.90
15991;DHT22;8100;50.994;4.538;2023-02-21T08:59:39;7.20;99.90
15991;DHT22;8100;50.994;4.538;2023-02-21T09:02:28;7.30;99.90
15991;DHT22;8100;50.994;4.538;2023-02-21T09:05:19;7.20;99.90
15991;DHT22;8100;50.994;4.538;2023-02-21T09:08:09;7.20;99.90
15991;DHT22;8100;50.994;4.538;2023-02-21T09:10:56;7.10;99.90
15991;DHT22;8100;50.994;4.538;2023-02-21T09:13:45;7.00;99.90
15991;DHT22;8100;50.994;4.538;2023-02-21T09:16:32;7.20;99.90
15991;DHT22;8100;50.994;4.538;2023-02-21T09:19:21;7.00;99.90
15991;DHT22;8100;50.994;4.538;2023-02-21T09:22:09;7.00;99.90
15991;DHT22;8100;50.994;4.538;2023-02-21T09:24:57;7.10;99.90
15991;DHT22;8100;50.994;4.538;2023-02-21T09:27:44;6.90;99.90
15991;DHT22;8100;50.994;4.538;2023-02-21T09:30:31;7.10;99.90
15991;DHT22;8100;50.994;4.538;2023-02-21T09:33:18;6.80;99.90
15991;DHT22;8100;50.994;4.538;2023-02-21T09:36:08;7.30;99.90
15991;DHT22;8100;50.994;4.538;2023-02-21T09:38:58;7.10;99.90
15991;DHT22;8100;50.994;4.538;2023-02-21T09:41:45;6.90;99.90
15991;DHT22;8100;50.994;4.538;2023-02-21T09:44:33;6.70;99.90
15991;DHT22;8100;50.994;4.538;2023-02-21T09:47:25;6.70;99.90
15991;DHT22;8100;50.994;4.538;2023-02-21T09:50:14;6.90;99.90
15991;DHT22;8100;50.994;4.538;2023-02-21T09:53:04;7.10;99.90
15991;DHT22;8100;50.994;4.538;2023-02-21T09:55:53;7.00;99.90
15991;DHT22;8100;50.994;4.538;2023-02-21T09:58:43;7.10;99.90
15991;DHT22;8100;50.994;4.538;2023-02-21T10:01:41;7.30;99.90
15991;DHT22;8100;50.994;4.538;2023-02-21T10:04:43;7.00;99.90
15991;DHT22;8100;50.994;4.538;2023-02-21T10:07:43;6.90;99.90
15991;DHT22;8100;50.994;4.538;2023-02-21T10:10:38;7.00;99.90
15991;DHT22;8100;50.994;4.538;2023-02-21T10:13:34;6.90;99.90
15991;DHT22;8100;50.994;4.538;2023-02-21T10:16:27;7.00;99.90
15991;DHT22;8100;50.994;4.538;2023-02-21T10:19:18;7.00;99.90
15991;DHT22;8100;50.994;4.538;2023-02-21T10:22:13;7.30;99.90
15991;DHT22;8100;50.994;4.538;2023-02-21T10:25:16;7.00;99.90
15991;DHT22;8100;50.994;4.538;2023-02-21T10:28:15;7.10;99.90
15991;DHT22;8100;50.994;4.538;2023-02-21T10:31:07;7.20;99.90
15991;DHT22;8100;50.994;4.538;2023-02-21T10:33:55;7.10;99.90
15991;DHT22;8100;50.994;4.538;2023-02-21T10:36:44;7.30;99.90
15991;DHT22;8100;50.994;4.538;2023-02-21T10:39:38;7.30;99.90
15991;DHT22;8100;50.994;4.538;2023-02-21T10:42:30;7.20;99.90
15991;DHT22;8100;50.994;4.538;2023-02-21T10:45:26;7.30;99.90
15991;DHT22;8100;50.994;4.538;2023-02-21T10:48:18;7.30;99.90
15991;DHT22;8100;50.994;4.538;2023-02-21T10:51:08;7.30;99.90
15991;DHT22;8100;50.994;4.538;2023-02-21T10:54:16;7.20;99.90
15991;DHT22;8100;50.994;4.538;2023-02-21T10:57:06;7.00;99.90
15991;DHT22;8100;50.994;4.538;2023-02-21T10:59:54;7.20;99.90
15991;DHT22;8100;50.994;4.538;2023-02-21T11:02:43;7.40;99.90
15991;DHT22;8100;50.994;4.538;2023-02-21T11:05:31;7.10;99.90
15991;DHT22;8100;50.994;4.538;2023-02-21T11:08:34;7.00;99.90
15991;DHT22;8100;50.994;4.538;2023-02-21T11:11:33;7.10;99.90
15991;DHT22;8100;50.994;4.538;2023-02-21T11:14:23;7.10;99.90
15991;DHT22;8100;50.994;4.538;2023-02-21T11:17:14;7.40;99.90
15991;DHT22;8100;50.994;4.538;2023-02-21T11:20:15;7.30;99.90
15991;DHT22;8100;50.994;4.538;2023-02-21T11:23:03;7.40;99.90
15991;DHT22;8100;50.994;4.538;2023-02-21T11:25:58;7.20;99.90
15991;DHT22;8100;50.994;4.538;2023-02-21T11:28:46;7.10;99.90
15991;DHT22;8100;50.994;4.538;2023-02-21T11:31:34;7.50;99.90
15991;DHT22;8100;50.994;4.538;2023-02-21T11:34:28;7.30;99.90
15991;DHT22;8100;50.994;4.538;2023-02-21T11:37:17;7.40;99.90
15991;DHT22;8100;50.994;4.538;2023-02-21T11:40:09;7.30;99.90
15991;DHT22;8100;50.994;4.538;2023-02-21T11:43:15;7.40;99.90
15991;DHT22;8100;50.994;4.538;2023-02-21T11:46:12;7.70;99.90
15991;DHT22;8100;50.994;4.538;2023-02-21T11:49:04;7.70;99.90
15991;DHT22;8100;50.994;4.538;2023-02-21T11:51:54;7.80;99.90
15991;DHT22;8100;50.994;4.538;2023-02-21T11:54:44;7.80;99.90
15991;DHT22;8100;50.994;4.538;2023-02-21T11:57:39;7.90;99.90
15991;DHT22;8100;50.994;4.538;2023-02-21T12:00:31;7.70;99.90
15991;DHT22;8100;50.994;4.538;2023-02-21T12:03:34;7.70;99.90
15991;DHT22;8100;50.994;4.538;2023-02-21T12:06:28;7.60;99.90
15991;DHT22;8100;50.994;4.538;2023-02-21T12:09:24;7.70;99.90
15991;DHT22;8100;50.994;4.538;2023-02-21T12:12:25;7.70;99.90
15991;DHT22;8100;50.994;4.538;2023-02-21T12:15:20;7.60;99.90
15991;DHT22;8100;50.994;4.538;2023-02-21T12:18:27;7.80;99.90
15991;DHT22;8100;50.994;4.538;2023-02-21T12:21:32;7.60;99.90
15991;DHT22;8100;50.994;4.538;2023-02-21T12:24:40;7.60;99.90
15991;DHT22;8100;50.994;4.538;2023-02-21T12:27:39;7.60;99.90
15991;DHT22;8100;50.994;4.538;2023-02-21T12:30:41;7.50;99.90
15991;DHT22;8100;50.994;4.538;2023-02-21T12:33:41;7.60;99.90
15991;DHT22;8100;50.994;4.538;2023-02-21T12:36:41;7.40;99.90
15991;DHT22;8100;50.994;4.538;2023-02-21T12:39:50;7.60;99.90
15991;DHT22;8100;50.994;4.538;2023-02-21T12:42:53;7.70;99.90
15991;DHT22;8100;50.994;4.538;2023-02-21T12:45:54;7.70;99.90
15991;DHT22;8100;50.994;4.538;2023-02-21T12:48:48;7.80;99.90
15991;DHT22;8100;50.994;4.538;2023-02-21T12:51:40;7.70;99.90
15991;DHT22;8100;50.994;4.538;2023-02-21T12:54:37;7.60;99.90
15991;DHT22;8100;50.994;4.538;2023-02-21T12:57:34;7.70;99.90
15991;DHT22;8100;50.994;4.538;2023-02-21T13:00:24;7.80;99.90
15991;DHT22;8100;50.994;4.538;2023-02-21T13:03:24;7.80;99.90
15991;DHT22;8100;50.994;4.538;2023-02-21T13:06:17;7.90;99.90
15991;DHT22;8100;50.994;4.538;2023-02-21T13:09:16;7.80;99.90
15991;DHT22;8100;50.994;4.538;2023-02-21T13:12:08;7.70;99.90
15991;DHT22;8100;50.994;4.538;2023-02-21T13:14:59;7.70;99.90
15991;DHT22;8100;50.994;4.538;2023-02-21T13:17:54;7.80;99.90
15991;DHT22;8100;50.994;4.538;2023-02-21T13:20:45;7.80;99.90
15991;DHT22;8100;50.994;4.538;2023-02-21T13:23:35;7.80;99.90
15991;DHT22;8100;50.994;4.538;2023-02-21T13:26:34;7.90;99.90
15991;DHT22;8100;50.994;4.538;2023-02-21T13:29:27;8.10;99.90
15991;DHT22;8100;50.994;4.538;2023-02-21T13:32:16;8.20;99.90
15991;DHT22;8100;50.994;4.538;2023-02-21T13:35:08;8.20;99.90
15991;DHT22;8100;50.994;4.538;2023-02-21T13:37:57;8.20;99.90
15991;DHT22;8100;50.994;4.538;2023-02-21T13:40:48;8.30;99.90
15991;DHT22;8100;50.994;4.538;2023-02-21T13:43:45;8.20;99.90
15991;DHT22;8100;50.994;4.538;2023-02-21T13:46:59;8.20;99.90
15991;DHT22;8100;50.994;4.538;2023-02-21T13:49:52;8.10;99.90
15991;DHT22;8100;50.994;4.538;2023-02-21T13:53:08;8.00;99.90
15991;DHT22;8100;50.994;4.538;2023-02-21T13:56:16;8.00;99.90
15991;DHT22;8100;50.994;4.538;2023-02-21T13:59:32;8.00;99.90
15991;DHT22;8100;50.994;4.538;2023-02-21T14:02:22;8.00;99.90
15991;DHT22;8100;50.994;4.538;2023-02-21T14:05:15;8.00;99.90
15991;DHT22;8100;50.994;4.538;2023-02-21T14:08:05;8.20;99.90
15991;DHT22;8100;50.994;4.538;2023-02-21T14:10:55;8.40;99.90
15991;DHT22;8100;50.994;4.538;2023-02-21T14:13:47;8.30;99.90
15991;DHT22;8100;50.994;4.538;2023-02-21T14:16:45;8.30;99.90
15991;DHT22;8100;50.994;4.538;2023-02-21T14:19:35;8.30;99.90
15991;DHT22;8100;50.994;4.538;2023-02-21T14:22:25;8.40;99.90
15991;DHT22;8100;50.994;4.538;2023-02-21T14:25:17;8.40;99.90
15991;DHT22;8100;50.994;4.538;2023-02-21T14:31:45;8.70;99.90
15991;DHT22;8100;50.994;4.538;2023-02-21T14:34:37;8.70;99.90
15991;DHT22;8100;50.994;4.538;2023-02-21T14:37:31;8.70;99.90
15991;DHT22;8100;50.994;4.538;2023-02-21T14:40:28;8.60;99.90
15991;DHT22;8100;50.994;4.538;2023-02-21T14:43:56;8.60;99.90
15991;DHT22;8100;50.994;4.538;2023-02-21T14:47:25;8.60;99.90
15991;DHT22;8100;50.994;4.538;2023-02-21T14:50:28;8.50;99.90
15991;DHT22;8100;50.994;4.538;2023-02-21T14:53:40;8.30;99.90
15991;DHT22;8100;50.994;4.538;2023-02-21T14:56:44;8.40;99.90
15991;DHT22;8100;50.994;4.538;2023-02-21T14:59:59;8.40;99.90
15991;DHT22;8100;50.994;4.538;2023-02-21T15:02:53;8.50;99.90
15991;DHT22;8100;50.994;4.538;2023-02-21T15:05:48;8.70;99.90
15991;DHT22;8100;50.994;4.538;2023-02-21T15:08:41;8.50;99.90
15991;DHT22;8100;50.994;4.538;2023-02-21T15:11:33;8.40;99.90
15991;DHT22;8100;50.994;4.538;2023-02-21T15:14:25;8.40;99.90
15991;DHT22;8100;50.994;4.538;2023-02-21T15:17:19;8.40;99.90
15991;DHT22;8100;50.994;4.538;2023-02-21T15:20:13;8.50;99.90
15991;DHT22;8100;50.994;4.538;2023-02-21T15:23:09;8.60;99.90
15991;DHT22;8100;50.994;4.538;2023-02-21T15:25:59;8.50;99.90
15991;DHT22;8100;50.994;4.538;2023-02-21T15:29:03;8.40;99.90
15991;DHT22;8100;50.994;4.538;2023-02-21T15:31:54;8.40;99.90
15991;DHT22;8100;50.994;4.538;2023-02-21T15:34:45;8.30;99.90
15991;DHT22;8100;50.994;4.538;2023-02-21T15:37:35;8.20;99.90
15991;DHT22;8100;50.994;4.538;2023-02-21T15:40:24;8.30;99.90
15991;DHT22;8100;50.994;4.538;2023-02-21T15:43:23;8.20;99.90
15991;DHT22;8100;50.994;4.538;2023-02-21T15:46:13;8.30;99.90
15991;DHT22;8100;50.994;4.538;2023-02-21T15:49:04;8.40;99.90
15991;DHT22;8100;50.994;4.538;2023-02-21T15:51:51;8.50;99.90
15991;DHT22;8100;50.994;4.538;2023-02-21T15:54:39;8.50;99.90
15991;DHT22;8100;50.994;4.538;2023-02-21T15:57:26;8.50;99.90
15991;DHT22;8100;50.994;4.538;2023-02-21T16:00:19;8.40;99.90
15991;DHT22;8100;50.994;4.538;2023-02-21T16:03:31;8.40;99.90
15991;DHT22;8100;50.994;4.538;2023-02-21T16:06:22;8.20;99.90
15991;DHT22;8100;50.994;4.538;2023-02-21T16:09:21;8.20;99.90
15991;DHT22;8100;50.994;4.538;2023-02-21T16:12:24;8.20;99.90
15991;DHT22;8100;50.994;4.538;2023-02-21T16:15:22;8.20;99.90
15991;DHT22;8100;50.994;4.538;2023-02-21T16:18:16;8.20;99.90
15991;DHT22;8100;50.994;4.538;2023-02-21T16:21:06;8.20;99.90
15991;DHT22;8100;50.994;4.538;2023-02-21T16:23:54;8.20;99.90
15991;DHT22;8100;50.994;4.538;2023-02-21T16:26:42;8.10;99.90
15991;DHT22;8100;50.994;4.538;2023-02-21T16:29:45;8.10;99.90
15991;DHT22;8100;50.994;4.538;2023-02-21T16:32:32;8.00;99.90
15991;DHT22;8100;50.994;4.538;2023-02-21T16:35:22;7.90;99.90
15991;DHT22;8100;50.994;4.538;2023-02-21T16:38:13;8.00;99.90
15991;DHT22;8100;50.994;4.538;2023-02-21T16:41:02;8.00;99.90
15991;DHT22;8100;50.994;4.538;2023-02-21T16:43:50;8.00;99.90
15991;DHT22;8100;50.994;4.538;2023-02-21T16:46:37;8.00;99.90
15991;DHT22;8100;50.994;4.538;2023-02-21T16:49:24;8.00;99.90
15991;DHT22;8100;50.994;4.538;2023-02-21T16:52:13;8.00;99.90
15991;DHT22;8100;50.994;4.538;2023-02-21T16:55:01;8.00;99.90
15991;DHT22;8100;50.994;4.538;2023-02-21T16:57:51;8.10;99.90
15991;DHT22;8100;50.994;4.538;2023-02-21T17:00:39;8.10;99.90
15991;DHT22;8100;50.994;4.538;2023-02-21T17:03:27;8.00;99.90
15991;DHT22;8100;50.994;4.538;2023-02-21T17:06:17;8.00;99.90
15991;DHT22;8100;50.994;4.538;2023-02-21T17:09:06;7.90;99.90
15991;DHT22;8100;50.994;4.538;2023-02-21T17:11:53;7.90;99.90
15991;DHT22;8100;50.994;4.538;2023-02-21T17:14:42;8.00;99.90
15991;DHT22;8100;50.994;4.538;2023-02-21T17:17:30;7.90;99.90
15991;DHT22;8100;50.994;4.538;2023-02-21T17:20:17;7.90;99.90
15991;DHT22;8100;50.994;4.538;2023-02-21T17:23:05;7.80;99.90
15991;DHT22;8100;50.994;4.538;2023-02-21T17:25:53;7.80;99.90
15991;DHT22;8100;50.994;4.538;2023-02-21T17:28:40;7.70;99.90
15991;DHT22;8100;50.994;4.538;2023-02-21T17:31:28;7.70;99.90
15991;DHT22;8100;50.994;4.538;2023-02-21T17:34:16;7.70;99.90
15991;DHT22;8100;50.994;4.538;2023-02-21T17:37:03;7.60;99.90
15991;DHT22;8100;50.994;4.538;2023-02-21T17:39:51;7.60;99.90
15991;DHT22;8100;50.994;4.538;2023-02-21T17:42:39;7.60;99.90
15991;DHT22;8100;50.994;4.538;2023-02-21T17:45:26;7.60;99.90
15991;DHT22;8100;50.994;4.538;2023-02-21T17:48:14;7.60;99.90
15991;DHT22;8100;50.994;4.538;2023-02-21T17:51:02;7.50;99.90
15991;DHT22;8100;50.994;4.538;2023-02-21T17:53:49;7.40;99.90
15991;DHT22;8100;50.994;4.538;2023-02-21T17:56:37;7.30;99.90
15991;DHT22;8100;50.994;4.538;2023-02-21T17:59:24;7.10;99.90
15991;DHT22;8100;50.994;4.538;2023-02-21T18:02:11;7.10;99.90
15991;DHT22;8100;50.994;4.538;2023-02-21T18:05:00;7.00;99.90
15991;DHT22;8100;50.994;4.538;2023-02-21T18:07:48;6.80;99.90
15991;DHT22;8100;50.994;4.538;2023-02-21T18:10:35;6.80;99.90
15991;DHT22;8100;50.994;4.538;2023-02-21T18:13:22;6.70;99.90
15991;DHT22;8100;50.994;4.538;2023-02-21T18:16:10;6.50;99.90
15991;DHT22;8100;50.994;4.538;2023-02-21T18:18:57;6.40;99.90
15991;DHT22;8100;50.994;4.538;2023-02-21T18:21:46;6.20;99.90
15991;DHT22;8100;50.994;4.538;2023-02-21T18:24:33;6.10;99.90
15991;DHT22;8100;50.994;4.538;2023-02-21T18:27:20;6.00;99.90
15991;DHT22;8100;50.994;4.538;2023-02-21T18:30:09;6.00;99.90
15991;DHT22;8100;50.994;4.538;2023-02-21T18:32:56;5.90;99.90
15991;DHT22;8100;50.994;4.538;2023-02-21T18:35:45;5.90;99.90
15991;DHT22;8100;50.994;4.538;2023-02-21T18:38:33;5.60;99.90
15991;DHT22;8100;50.994;4.538;2023-02-21T18:41:22;5.60;99.90
15991;DHT22;8100;50.994;4.538;2023-02-21T18:44:09;5.50;99.90
15991;DHT22;8100;50.994;4.538;2023-02-21T18:46:56;5.60;99.90
15991;DHT22;8100;50.994;4.538;2023-02-21T18:49:44;5.30;99.90
15991;DHT22;8100;50.994;4.538;2023-02-21T18:52:31;5.30;99.90
15991;DHT22;8100;50.994;4.538;2023-02-21T18:55:20;5.40;99.90
15991;DHT22;8100;50.994;4.538;2023-02-21T18:58:07;5.20;99.90